createdAt,value
2023-04-23T00:01:20.705Z,46.17
2023-04-23T00:03:50.270Z,47.02
2023-04-23T00:06:17.959Z,47.62
2023-04-23T00:08:45.644Z,47.12
2023-04-23T00:11:12.997Z,46.48
2023-04-23T00:13:40.450Z,46.54
2023-04-23T00:16:08.391Z,46.42
2023-04-23T00:18:35.582Z,46.42
2023-04-23T00:21:02.629Z,46.84
2023-04-23T00:23:29.686Z,46.80
2023-04-23T00:25:56.743Z,46.67
2023-04-23T00:28:23.807Z,46.88
2023-04-23T00:30:51.154Z,46.71
2023-04-23T00:33:18.287Z,47.13
2023-04-23T00:35:45.606Z,46.95
2023-04-23T00:38:12.674Z,47.21
2023-04-23T00:40:39.844Z,47.21
2023-04-23T00:43:09.726Z,47.28
2023-04-23T00:45:37.008Z,47.12
2023-04-23T00:48:04.177Z,47.64
2023-04-23T00:50:31.278Z,47.73
2023-04-23T00:52:58.317Z,47.79
2023-04-23T00:55:25.630Z,47.66
2023-04-23T00:57:52.776Z,47.78
2023-04-23T01:00:20.742Z,47.84
2023-04-23T01:02:49.947Z,47.86
2023-04-23T01:05:18.415Z,48.10
2023-04-23T01:07:46.649Z,48.33
2023-04-23T01:10:13.993Z,48.67
2023-04-23T01:12:41.059Z,48.74
2023-04-23T01:15:09.272Z,48.37
2023-04-23T01:17:37.184Z,49.06
2023-04-23T01:20:06.674Z,48.97
2023-04-23T01:22:38.191Z,48.96
2023-04-23T01:25:05.948Z,48.98
2023-04-23T01:27:36.044Z,48.86
2023-04-23T01:30:07.603Z,48.93
2023-04-23T01:32:35.446Z,49.36
2023-04-23T01:35:04.588Z,48.76
2023-04-23T01:37:32.187Z,49.38
2023-04-23T01:39:59.448Z,49.47
2023-04-23T01:42:26.550Z,49.62
2023-04-23T01:44:53.617Z,49.43
2023-04-23T01:47:21.249Z,49.51
2023-04-23T01:49:48.628Z,49.69
2023-04-23T01:52:15.757Z,49.59
2023-04-23T01:54:42.925Z,49.61
2023-04-23T01:57:10.854Z,50.10
2023-04-23T01:59:38.778Z,50.00
2023-04-23T02:02:05.962Z,50.03
2023-04-23T02:04:34.169Z,50.04
2023-04-23T02:07:01.399Z,50.28
2023-04-23T02:09:28.430Z,50.62
2023-04-23T02:11:57.766Z,50.78
2023-04-23T02:14:24.752Z,50.65
2023-04-23T02:16:51.729Z,50.41
2023-04-23T02:19:18.899Z,50.73
2023-04-23T02:21:46.472Z,50.93
2023-04-23T02:24:13.551Z,50.77
2023-04-23T02:26:40.589Z,51.13
2023-04-23T02:29:07.586Z,51.25
2023-04-23T02:31:34.602Z,51.37
2023-04-23T02:34:01.706Z,51.51
2023-04-23T02:36:31.066Z,51.55
2023-04-23T02:38:58.085Z,51.56
2023-04-23T02:41:25.089Z,51.59
2023-04-23T02:43:52.204Z,51.73
2023-04-23T02:46:19.273Z,51.88
2023-04-23T02:48:46.560Z,51.86
2023-04-23T02:51:14.314Z,52.00
2023-04-23T02:53:41.308Z,51.68
2023-04-23T02:56:08.450Z,52.01
2023-04-23T02:58:35.782Z,52.13
2023-04-23T03:01:03.975Z,52.58
2023-04-23T03:03:32.533Z,51.93
2023-04-23T03:06:02.543Z,52.09
2023-04-23T03:08:29.746Z,52.48
2023-04-23T03:10:56.757Z,52.55
2023-04-23T03:13:24.202Z,53.09
2023-04-23T03:15:52.579Z,52.57
2023-04-23T03:18:20.393Z,52.45
2023-04-23T03:20:47.886Z,52.90
2023-04-23T03:23:14.897Z,52.81
2023-04-23T03:25:41.879Z,52.79
2023-04-23T03:28:08.888Z,52.66
2023-04-23T03:30:35.929Z,52.89
2023-04-23T03:33:03.398Z,52.96
2023-04-23T03:35:30.639Z,53.19
2023-04-23T03:37:57.830Z,53.06
2023-04-23T03:40:25.049Z,53.54
2023-04-23T03:42:52.072Z,52.98
2023-04-23T03:45:19.055Z,52.97
2023-04-23T03:47:46.159Z,52.59
2023-04-23T03:50:13.554Z,53.23
2023-04-23T03:52:41.138Z,51.87
2023-04-23T03:55:09.090Z,49.86
2023-04-23T03:57:39.255Z,47.58
2023-04-23T04:00:11.910Z,45.89
2023-04-23T04:02:41.011Z,44.31
2023-04-23T04:05:10.310Z,43.00
2023-04-23T04:07:37.619Z,41.42
2023-04-23T04:10:06.772Z,40.50
2023-04-23T04:12:33.873Z,39.32
2023-04-23T04:15:00.877Z,37.38
2023-04-23T04:17:27.848Z,36.34
2023-04-23T04:19:54.902Z,34.60
2023-04-23T04:22:21.999Z,33.43
2023-04-23T04:24:52.073Z,32.52
2023-04-23T04:27:19.620Z,31.03
2023-04-23T04:29:46.666Z,31.48
2023-04-23T04:32:13.963Z,30.56
2023-04-23T04:34:41.204Z,29.17
2023-04-23T04:37:10.031Z,28.30
2023-04-23T04:39:37.343Z,28.16
2023-04-23T04:42:06.735Z,27.53
2023-04-23T04:44:37.543Z,27.13
2023-04-23T04:47:08.130Z,26.35
2023-04-23T04:49:36.134Z,26.44
2023-04-23T04:52:03.280Z,25.38
2023-04-23T04:54:30.269Z,24.36
2023-04-23T04:56:57.328Z,24.08
2023-04-23T04:59:24.504Z,23.02
2023-04-23T05:01:51.540Z,21.98
2023-04-23T05:04:18.705Z,21.44
2023-04-23T05:06:45.983Z,20.62
2023-04-23T05:09:13.022Z,20.38
2023-04-23T05:11:41.225Z,19.38
2023-04-23T05:14:08.253Z,19.29
2023-04-23T05:16:35.569Z,19.66
2023-04-23T05:19:02.566Z,19.46
2023-04-23T05:21:29.698Z,19.22
2023-04-23T05:23:56.659Z,18.68
2023-04-23T05:26:23.700Z,18.08
2023-04-23T05:28:50.746Z,17.47
2023-04-23T05:31:17.793Z,17.11
2023-04-23T05:33:50.334Z,17.20
2023-04-23T05:36:18.491Z,17.06
2023-04-23T05:38:45.648Z,16.69
2023-04-23T05:41:13.055Z,16.72
2023-04-23T05:43:40.070Z,16.76
2023-04-23T05:46:07.810Z,16.70
2023-04-23T05:48:35.340Z,15.81
2023-04-23T05:51:02.490Z,15.68
2023-04-23T05:53:29.456Z,15.76
2023-04-23T05:55:56.665Z,15.28
2023-04-23T05:58:24.196Z,14.71
2023-04-23T06:00:53.036Z,14.70
2023-04-23T06:03:20.452Z,14.55
2023-04-23T06:05:47.807Z,14.78
2023-04-23T06:08:14.942Z,14.00
2023-04-23T06:10:41.964Z,14.16
2023-04-23T06:13:09.222Z,13.63
2023-04-23T06:15:36.214Z,14.34
2023-04-23T06:18:03.338Z,14.01
2023-04-23T06:20:30.801Z,14.25
2023-04-23T06:22:57.864Z,13.89
2023-04-23T06:25:25.850Z,13.17
2023-04-23T06:27:52.808Z,13.38
2023-04-23T06:30:20.030Z,12.85
2023-04-23T06:32:47.083Z,12.81
2023-04-23T06:35:14.152Z,13.51
2023-04-23T06:37:41.137Z,12.33
2023-04-23T06:40:08.662Z,13.48
2023-04-23T06:42:35.666Z,12.88
2023-04-23T06:45:06.175Z,12.57
2023-04-23T06:47:33.485Z,12.15
2023-04-23T06:50:00.473Z,12.33
2023-04-23T06:52:27.727Z,11.87
2023-04-23T06:54:54.734Z,12.22
2023-04-23T06:57:22.021Z,12.47
2023-04-23T06:59:49.126Z,12.37
2023-04-23T07:02:16.323Z,12.72
2023-04-23T07:04:43.712Z,12.86
2023-04-23T07:07:12.108Z,12.29
2023-04-23T07:09:39.379Z,12.09
2023-04-23T07:12:06.481Z,12.54
2023-04-23T07:14:33.531Z,12.64
2023-04-23T07:17:00.654Z,12.63
2023-04-23T07:19:27.978Z,12.58
2023-04-23T07:21:54.980Z,13.18
2023-04-23T07:24:22.132Z,13.33
2023-04-23T07:26:49.394Z,14.52
2023-04-23T07:29:16.710Z,14.61
2023-04-23T07:31:43.928Z,14.99
2023-04-23T07:34:11.102Z,14.96
2023-04-23T07:36:38.310Z,15.30
2023-04-23T07:39:05.762Z,15.88
2023-04-23T07:41:33.660Z,15.76
2023-04-23T07:44:01.046Z,16.87
2023-04-23T07:46:28.180Z,16.99
2023-04-23T07:48:55.658Z,17.01
2023-04-23T07:51:26.567Z,17.13
2023-04-23T07:53:58.358Z,16.80
2023-04-23T07:56:25.577Z,17.14
2023-04-23T07:58:54.110Z,17.16
2023-04-23T08:01:21.920Z,17.07
2023-04-23T08:03:49.091Z,17.46
2023-04-23T08:06:16.719Z,16.77
2023-04-23T08:08:44.142Z,16.76
2023-04-23T08:11:11.804Z,18.04
2023-04-23T08:13:38.801Z,18.25
2023-04-23T08:16:07.007Z,17.81
2023-04-23T08:18:34.152Z,17.38
2023-04-23T08:21:02.052Z,17.55
2023-04-23T08:23:29.089Z,18.55
2023-04-23T08:25:56.199Z,18.58
2023-04-23T08:28:23.288Z,18.94
2023-04-23T08:30:50.402Z,19.39
2023-04-23T08:33:17.499Z,19.98
2023-04-23T08:35:44.481Z,20.27
2023-04-23T08:38:11.484Z,20.08
2023-04-23T08:40:42.677Z,20.21
2023-04-23T08:43:26.339Z,20.39
2023-04-23T08:45:54.018Z,20.05
2023-04-23T08:48:21.779Z,20.41
2023-04-23T08:50:49.532Z,20.43
2023-04-23T08:53:22.051Z,20.80
2023-04-23T08:55:50.737Z,21.02
2023-04-23T08:58:18.392Z,20.39
2023-04-23T09:00:45.874Z,20.26
2023-04-23T09:03:13.524Z,20.40
2023-04-23T09:05:40.630Z,20.01
2023-04-23T09:08:08.726Z,20.10
2023-04-23T09:10:40.097Z,19.69
2023-04-23T09:13:07.433Z,19.54
2023-04-23T09:15:43.341Z,19.37
2023-04-23T09:18:10.945Z,18.94
2023-04-23T09:20:38.309Z,19.54
2023-04-23T09:23:09.153Z,19.25
2023-04-23T09:25:36.992Z,19.08
2023-04-23T09:28:10.800Z,19.00
2023-04-23T09:30:44.992Z,19.38
2023-04-23T09:33:17.444Z,19.98
2023-04-23T09:35:44.649Z,20.68
2023-04-23T09:38:12.519Z,20.87
2023-04-23T09:40:39.570Z,20.21
2023-04-23T09:43:10.435Z,19.97
2023-04-23T09:45:38.056Z,19.57
2023-04-23T09:48:06.060Z,19.36
2023-04-23T09:50:39.100Z,20.00
2023-04-23T09:53:08.710Z,20.53
2023-04-23T09:55:42.820Z,20.14
2023-04-23T09:58:15.675Z,20.38
2023-04-23T10:00:43.498Z,20.26
2023-04-23T10:03:12.004Z,19.90
2023-04-23T10:08:14.611Z,20.31
2023-04-23T10:13:12.044Z,19.81
2023-04-23T10:15:39.295Z,20.06
2023-04-23T10:18:08.371Z,20.46
2023-04-23T10:20:36.058Z,20.25
2023-04-23T10:23:04.166Z,20.50
2023-04-23T10:25:32.675Z,20.64
2023-04-23T10:28:02.566Z,20.76
2023-04-23T10:30:30.202Z,21.07
2023-04-23T10:33:00.463Z,20.38
2023-04-23T10:35:27.891Z,20.56
2023-04-23T10:37:54.923Z,20.70
2023-04-23T10:40:34.051Z,20.58
2023-04-23T10:43:01.361Z,20.18
2023-04-23T10:45:32.127Z,19.96
2023-04-23T10:47:59.590Z,20.85
2023-04-23T10:50:35.296Z,21.14
2023-04-23T10:53:03.921Z,20.75
2023-04-23T10:55:32.734Z,21.61
2023-04-23T10:58:08.386Z,20.79
2023-04-23T11:00:41.328Z,20.98
2023-04-23T11:03:34.692Z,21.31
2023-04-23T11:06:03.529Z,21.77
2023-04-23T11:08:32.613Z,21.14
2023-04-23T11:11:01.584Z,21.38
2023-04-23T11:13:30.342Z,21.91
2023-04-23T11:16:23.449Z,21.95
2023-04-23T11:19:04.796Z,21.70
2023-04-23T11:22:01.582Z,21.87
2023-04-23T11:24:34.431Z,22.82
2023-04-23T11:27:02.712Z,22.30
2023-04-23T11:29:29.877Z,22.11
2023-04-23T11:32:02.973Z,21.94
2023-04-23T11:34:33.034Z,22.13
2023-04-23T11:37:01.341Z,22.49
2023-04-23T11:39:28.471Z,22.70
2023-04-23T11:41:55.663Z,22.56
2023-04-23T11:44:23.231Z,22.67
2023-04-23T11:46:51.173Z,23.09
2023-04-23T11:49:19.954Z,23.02
2023-04-23T11:51:48.624Z,22.95
2023-04-23T11:54:16.348Z,22.91
2023-04-23T11:56:43.928Z,22.32
2023-04-23T11:59:11.144Z,22.43
2023-04-23T12:01:47.422Z,23.58
2023-04-23T12:04:22.332Z,23.39
2023-04-23T12:06:51.064Z,23.76
2023-04-23T12:09:22.111Z,23.52
2023-04-23T12:11:52.896Z,23.17
2023-04-23T12:14:28.850Z,23.13
2023-04-23T12:16:57.936Z,23.42
2023-04-23T12:19:31.107Z,23.10
2023-04-23T12:22:03.473Z,23.12
2023-04-23T12:24:52.268Z,23.17
2023-04-23T12:27:24.463Z,23.47
2023-04-23T12:30:04.917Z,23.63
2023-04-23T12:32:34.753Z,23.61
2023-04-23T12:35:02.049Z,23.59
2023-04-23T12:37:31.085Z,23.54
2023-04-23T12:39:59.654Z,23.72
2023-04-23T12:42:27.328Z,23.54
2023-04-23T12:44:57.393Z,23.38
2023-04-23T12:47:24.466Z,23.59
2023-04-23T12:49:55.690Z,23.60
2023-04-23T12:52:22.711Z,22.99
2023-04-23T12:54:52.892Z,23.11
2023-04-23T12:57:23.334Z,23.70
2023-04-23T12:59:50.902Z,23.65
2023-04-23T13:02:18.007Z,23.51
2023-04-23T13:04:45.073Z,23.96
2023-04-23T13:07:12.097Z,23.99
2023-04-23T13:09:39.176Z,23.79
2023-04-23T13:12:06.336Z,24.04
2023-04-23T13:14:33.398Z,23.64
2023-04-23T13:17:00.521Z,23.96
2023-04-23T13:19:27.577Z,24.09
2023-04-23T13:21:54.577Z,24.12
2023-04-23T13:24:21.643Z,23.99
2023-04-23T13:26:48.694Z,24.53
2023-04-23T13:29:16.121Z,24.09
2023-04-23T13:31:43.242Z,23.91
2023-04-23T13:34:10.394Z,23.72
2023-04-23T13:36:37.949Z,23.58
2023-04-23T13:39:05.025Z,24.21
2023-04-23T13:41:32.147Z,24.08
2023-04-23T13:43:59.861Z,24.64
2023-04-23T13:46:27.317Z,25.06
2023-04-23T13:48:54.455Z,24.09
2023-04-23T13:51:33.806Z,24.65
2023-04-23T13:54:02.588Z,24.37
2023-04-23T13:56:30.922Z,24.70
2023-04-23T13:59:18.846Z,24.88
2023-04-23T14:01:50.149Z,25.88
2023-04-23T14:04:18.791Z,25.83
2023-04-23T14:06:46.206Z,28.09
2023-04-23T14:09:13.381Z,28.07
2023-04-23T14:11:41.668Z,26.39
2023-04-23T14:14:08.861Z,28.95
2023-04-23T14:16:36.051Z,27.86
2023-04-23T14:19:03.137Z,27.24
2023-04-23T14:21:30.577Z,29.01
2023-04-23T14:24:09.077Z,26.29
2023-04-23T14:29:53.588Z,28.50
2023-04-23T14:32:20.768Z,28.38
2023-04-23T14:34:47.858Z,29.05
2023-04-23T14:37:17.209Z,28.18
2023-04-23T14:39:44.681Z,28.54
2023-04-23T14:42:11.851Z,32.22
2023-04-23T14:44:38.796Z,31.02
2023-04-23T14:47:08.189Z,27.33
2023-04-23T14:49:35.233Z,28.58
2023-04-23T14:52:03.346Z,31.01
2023-04-23T14:54:30.339Z,29.37
2023-04-23T14:56:57.388Z,30.06
2023-04-23T14:59:24.514Z,28.22
2023-04-23T15:01:51.693Z,27.48
2023-04-23T15:04:19.563Z,27.65
2023-04-23T15:06:46.704Z,28.91
2023-04-23T15:09:13.753Z,27.61
2023-04-23T15:11:42.189Z,27.95
2023-04-23T15:14:31.660Z,27.42
2023-04-23T15:16:59.014Z,28.13
2023-04-23T15:19:26.107Z,28.24
2023-04-23T15:21:53.156Z,28.54
2023-04-23T15:24:20.172Z,27.50
2023-04-23T15:26:47.706Z,28.09
2023-04-23T15:29:14.746Z,29.84
2023-04-23T15:31:42.061Z,27.95
2023-04-23T15:34:09.725Z,28.66
2023-04-23T15:36:37.866Z,27.56
2023-04-23T15:39:07.202Z,28.55
2023-04-23T15:41:39.410Z,27.58
2023-04-23T15:44:10.983Z,27.88
2023-04-23T15:46:38.103Z,28.15
2023-04-23T15:49:05.669Z,28.81
2023-04-23T15:51:33.016Z,27.89
2023-04-23T15:54:02.229Z,28.03
2023-04-23T15:56:29.422Z,28.44
2023-04-23T15:58:56.936Z,27.55
2023-04-23T16:01:26.895Z,28.21
2023-04-23T16:04:09.802Z,28.01
2023-04-23T16:06:38.586Z,28.37
2023-04-23T16:09:08.895Z,28.49
2023-04-23T16:11:38.085Z,27.63
2023-04-23T16:14:06.628Z,28.44
2023-04-23T16:16:33.939Z,28.43
2023-04-23T16:19:02.746Z,27.37
2023-04-23T16:21:30.017Z,27.85
2023-04-23T16:23:56.998Z,27.92
2023-04-23T16:26:24.501Z,28.35
2023-04-23T16:29:05.773Z,27.83
2023-04-23T16:31:38.837Z,28.60
2023-04-23T16:34:05.877Z,28.52
2023-04-23T16:36:32.968Z,28.24
2023-04-23T16:39:00.029Z,29.09
2023-04-23T16:41:27.438Z,28.45
2023-04-23T16:43:54.422Z,28.03
2023-04-23T16:46:21.744Z,28.14
2023-04-23T16:48:48.746Z,28.74
2023-04-23T16:51:15.816Z,29.18
2023-04-23T16:53:43.128Z,28.62
2023-04-23T16:56:10.356Z,28.76
2023-04-23T16:58:37.391Z,28.55
2023-04-23T17:01:04.412Z,28.75
2023-04-23T17:03:31.836Z,28.87
2023-04-23T17:06:31.949Z,28.85
2023-04-23T17:09:01.719Z,28.58
2023-04-23T17:11:31.194Z,28.88
2023-04-23T17:13:58.560Z,29.25
2023-04-23T17:16:29.099Z,29.37
2023-04-23T17:18:56.865Z,29.09
2023-04-23T17:21:24.155Z,29.50
2023-04-23T17:23:51.434Z,29.94
2023-04-23T17:26:19.282Z,29.95
2023-04-23T17:28:46.309Z,29.47
2023-04-23T17:31:13.332Z,29.45
2023-04-23T17:33:43.498Z,29.71
2023-04-23T17:36:10.782Z,29.73
2023-04-23T17:38:37.786Z,30.14
2023-04-23T17:41:04.899Z,30.22
2023-04-23T17:43:34.815Z,29.93
2023-04-23T17:46:02.458Z,30.23
2023-04-23T17:48:29.853Z,30.39
2023-04-23T17:50:57.060Z,30.36
2023-04-23T17:53:24.118Z,29.90
2023-04-23T17:55:51.427Z,30.32
2023-04-23T17:58:19.370Z,30.57
2023-04-23T18:00:47.110Z,31.06
2023-04-23T18:03:16.940Z,30.79
2023-04-23T18:05:45.030Z,30.70
2023-04-23T18:08:12.901Z,30.60
2023-04-23T18:10:40.048Z,30.67
2023-04-23T18:13:09.214Z,30.74
2023-04-23T18:15:36.319Z,30.76
2023-04-23T18:18:04.079Z,30.67
2023-04-23T18:20:34.483Z,30.93
2023-04-23T18:23:01.724Z,30.38
2023-04-23T18:25:28.985Z,30.81
2023-04-23T18:27:56.149Z,31.03
2023-04-23T18:30:25.271Z,30.91
2023-04-23T18:33:07.286Z,30.79
2023-04-23T18:35:34.343Z,31.47
2023-04-23T18:38:10.009Z,31.12
2023-04-23T18:40:37.089Z,31.39
2023-04-23T18:43:04.088Z,31.00
2023-04-23T18:45:31.074Z,30.83
2023-04-23T18:48:23.479Z,31.30
2023-04-23T18:50:50.798Z,31.57
2023-04-23T18:53:19.058Z,30.88
2023-04-23T18:55:47.115Z,31.49
2023-04-23T18:58:14.104Z,31.59
2023-04-23T19:00:41.257Z,31.88
2023-04-23T19:03:23.695Z,32.07
2023-04-23T19:05:53.791Z,32.05
2023-04-23T19:08:21.348Z,31.47
2023-04-23T19:10:48.476Z,31.66
2023-04-23T19:13:15.541Z,31.44
2023-04-23T19:15:42.547Z,31.50
2023-04-23T19:18:09.616Z,31.85
2023-04-23T19:20:36.653Z,31.55
2023-04-23T19:23:05.126Z,31.51
2023-04-23T19:25:32.251Z,31.42
2023-04-23T19:27:59.218Z,31.62
2023-04-23T19:30:26.236Z,31.55
2023-04-23T19:32:53.468Z,31.42
2023-04-23T19:35:21.044Z,31.97
2023-04-23T19:37:48.115Z,31.91
2023-04-23T19:40:15.269Z,31.98
2023-04-23T19:42:42.282Z,32.12
2023-04-23T19:45:09.810Z,32.30
2023-04-23T19:47:39.139Z,32.43
2023-04-23T19:50:07.537Z,32.54
2023-04-23T19:52:34.685Z,32.83
2023-04-23T19:55:01.962Z,32.97
2023-04-23T19:57:29.369Z,32.57
2023-04-23T19:59:56.354Z,32.78
2023-04-23T20:02:24.206Z,32.79
2023-04-23T20:04:51.332Z,32.92
2023-04-23T20:07:18.671Z,33.20
2023-04-23T20:09:45.877Z,33.29
2023-04-23T20:12:14.165Z,33.18
2023-04-23T20:14:42.316Z,33.53
2023-04-23T20:17:10.241Z,33.68
2023-04-23T20:19:38.375Z,33.71
2023-04-23T20:22:05.395Z,33.64
2023-04-23T20:24:32.566Z,34.03
2023-04-23T20:26:59.694Z,33.88
2023-04-23T20:29:27.564Z,33.87
2023-04-23T20:31:54.593Z,34.06
2023-04-23T20:34:21.711Z,34.10
2023-04-23T20:36:49.004Z,34.25
2023-04-23T20:39:18.794Z,34.30
2023-04-23T20:41:46.693Z,34.10
2023-04-23T20:44:13.764Z,34.19
2023-04-23T20:46:41.214Z,34.29
2023-04-23T20:49:08.885Z,34.56
2023-04-23T20:51:35.927Z,34.55
2023-04-23T20:54:03.388Z,34.61
2023-04-23T20:56:31.480Z,34.61
2023-04-23T20:58:59.571Z,35.01
2023-04-23T21:01:27.159Z,35.36
2023-04-23T21:03:54.729Z,35.33
2023-04-23T21:06:22.435Z,35.80
2023-04-23T21:08:49.726Z,36.01
2023-04-23T21:11:19.383Z,36.37
2023-04-23T21:13:47.033Z,36.92
2023-04-23T21:16:14.641Z,37.20
2023-04-23T21:18:42.084Z,36.96
2023-04-23T21:21:09.133Z,37.44
2023-04-23T21:23:36.414Z,37.94
2023-04-23T21:26:03.669Z,38.07
2023-04-23T21:28:31.804Z,38.24
2023-04-23T21:31:07.745Z,38.61
2023-04-23T21:33:34.756Z,38.83
2023-04-23T21:36:01.758Z,38.74
2023-04-23T21:38:28.718Z,38.73
2023-04-23T21:40:55.791Z,39.14
2023-04-23T21:43:24.420Z,39.07
2023-04-23T21:45:51.768Z,38.74
2023-04-23T21:48:18.790Z,39.00
2023-04-23T21:50:46.055Z,39.29
2023-04-23T21:53:13.194Z,39.27
2023-04-23T21:55:40.472Z,39.64
2023-04-23T21:58:17.441Z,39.42
2023-04-23T22:00:46.058Z,39.69
2023-04-23T22:03:17.632Z,39.52
2023-04-23T22:05:52.283Z,39.85
2023-04-23T22:08:19.536Z,39.86
2023-04-23T22:10:46.697Z,40.15
2023-04-23T22:13:14.383Z,40.13
2023-04-23T22:15:41.414Z,40.44
2023-04-23T22:18:08.703Z,40.85
2023-04-23T22:20:37.613Z,40.86
2023-04-23T22:23:04.623Z,41.08
2023-04-23T22:25:31.634Z,41.24
2023-04-23T22:27:58.958Z,41.30
2023-04-23T22:30:26.058Z,41.02
2023-04-23T22:32:53.147Z,41.51
2023-04-23T22:35:20.287Z,41.72
2023-04-23T22:37:47.322Z,41.82
2023-04-23T22:40:14.421Z,42.05
2023-04-23T22:42:41.517Z,42.50
2023-04-23T22:45:08.809Z,42.73
2023-04-23T22:47:36.314Z,42.83
2023-04-23T22:50:04.243Z,42.67
2023-04-23T22:52:31.621Z,42.98
2023-04-23T22:54:58.608Z,43.45
2023-04-23T22:57:25.997Z,43.37
2023-04-23T22:59:53.057Z,43.58
2023-04-23T23:02:20.147Z,44.00
2023-04-23T23:04:47.214Z,43.83
2023-04-23T23:07:14.912Z,44.21
2023-04-23T23:09:41.979Z,44.22
2023-04-23T23:12:09.229Z,44.61
2023-04-23T23:14:37.868Z,44.60
2023-04-23T23:17:06.474Z,45.12
2023-04-23T23:19:33.579Z,45.12
2023-04-23T23:22:00.711Z,45.36
2023-04-23T23:24:27.780Z,45.67
2023-04-23T23:26:54.809Z,45.56
2023-04-23T23:29:21.946Z,45.82
2023-04-23T23:31:49.706Z,45.68
2023-04-23T23:34:16.871Z,45.89
2023-04-23T23:36:45.344Z,46.14
2023-04-23T23:39:13.364Z,46.21
2023-04-23T23:41:40.403Z,46.08
2023-04-23T23:44:07.393Z,46.62
2023-04-23T23:46:34.406Z,46.40
2023-04-23T23:49:01.511Z,46.79
2023-04-23T23:51:29.124Z,46.79
2023-04-23T23:53:56.171Z,47.05
2023-04-23T23:56:23.191Z,47.30
2023-04-23T23:58:50.203Z,47.44
